Imrikly — CNA5014 — position and weather

sailwx.info

Track history (hours):
 
Tides and Currents Weather Stations Pressure Air Temp Water Temp Dewpoint Dewpoint Depression Visibility Wind Speed Wind Dir Waves Ship Positions

Imrikly

Last reported at 2017-Nov-20 00:30 UTC. Time now 2018-Jan-24 11:52 UTC.
Position N 38°39' W 009°55'.
Warning: this ship's position is months out of date.

Length 106 m; draft 4.6 m.

Type: Ship (hazmat cat D). MMSI: 242426300.

Date/timePositionNaut miles runAvg speedWind from/ knotsBaromVisibWave heightAir tempDewpointWater temp
2017-Nov-20 00:30N 38°39' W 009°55'510.6
2017-Nov-20 00:00N 38°33' W 009°54'510.6
2017-Nov-19 23:31N 38°28' W 009°54'510.5
2017-Nov-19 23:00N 38°23' W 009°55'510.3
2017-Nov-19 22:30N 38°18' W 009°55'510.3
2017-Nov-19 22:00N 38°13' W 009°56'510.3
2017-Nov-19 21:31N 38°08' W 009°57'510.4
2017-Nov-19 21:00N 38°02' W 009°57'510.6
2017-Nov-19 20:31N 37°57' W 009°57'510.6
2017-Nov-19 20:00N 37°52' W 009°58'511.0
2017-Nov-19 19:30N 37°46' W 009°58'511.0
2017-Nov-19 19:01N 37°41' W 009°59'510.9
2017-Nov-19 18:30N 37°35' W 009°60'510.4
2017-Nov-19 18:00N 37°30' W 010°00'510.6
2017-Nov-19 17:30N 37°25' W 010°02'510.4
2017-Nov-19 17:00N 37°20' W 010°05'510.2
2017-Nov-19 16:31N 37°15' W 010°07'510.5
2017-Nov-19 16:00N 37°10' W 010°08'510.3
2017-Nov-19 15:29N 37°05' W 010°10'510.2
2017-Nov-19 15:00N 37°01' W 010°12'510.2
2017-Nov-19 14:30N 36°56' W 010°14'1510.4
2017-Nov-19 13:02N 36°41' W 010°19'310.3
2017-Nov-19 12:48N 36°38' W 010°20'510.5
2017-Nov-19 12:17N 36°34' W 010°23'310.5
2017-Nov-19 12:00N 36°31' W 010°24'510.7
2017-Nov-19 11:30N 36°26' W 010°26'  
2017-Nov-14 15:28N 28°06' W 013°13'6 6.8
2017-Nov-14 14:38N 28°00' W 013°14'1 9.2
2017-Nov-14 14:29N 27°59' W 013°15'7 9.3
2017-Nov-14 13:42N 27°52' W 013°19'  
2017-Nov-11 17:01N 27°05' W 013°26'0 0.9
2017-Nov-11 16:58N 27°05' W 013°26'1 2.1
2017-Nov-11 16:23N 27°05' W 013°27'1 1.3
2017-Nov-11 15:59N 27°05' W 013°28'0 0.1
2017-Nov-11 15:29N 27°05' W 013°28'0 0.0
2017-Nov-11 09:47N 27°05' W 013°28'0 0.0
2017-Nov-11 08:38N 27°05' W 013°28'0 0.0
2017-Nov-11 08:20N 27°05' W 013°28'0 0.0
2017-Nov-11 07:53N 27°05' W 013°28'0 0.0
2017-Nov-10 22:56N 27°05' W 013°28'0 0.0
2017-Nov-10 22:23N 27°05' W 013°28'0 0.1
2017-Nov-10 21:56N 27°05' W 013°28'2 4.2
2017-Nov-10 21:30N 27°07' W 013°28'6 9.8
2017-Nov-10 20:56N 27°12' W 013°29'4 9.8
2017-Nov-10 20:30N 27°16' W 013°30'5 9.6
2017-Nov-10 20:00N 27°21' W 013°31'5 9.5
2017-Nov-10 19:30N 27°26' W 013°32'5 9.6
2017-Nov-10 18:59N 27°31' W 013°33'5 9.5
2017-Nov-10 18:30N 27°35' W 013°34'5 9.6
2017-Nov-10 17:59N 27°40' W 013°35'5 9.5
2017-Nov-10 17:30N 27°45' W 013°36'5 9.4
2017-Nov-10 17:00N 27°49' W 013°36'5 9.4
2017-Nov-10 16:30N 27°54' W 013°35'5 9.9
2017-Nov-10 16:00N 27°58' W 013°32'5 9.8
2017-Nov-10 15:30N 28°03' W 013°30'5 9.7
2017-Nov-10 14:59N 28°07' W 013°27'5 9.7
2017-Nov-10 14:29N 28°11' W 013°25'5 9.6
2017-Nov-10 14:00N 28°16' W 013°22'5 9.6
2017-Nov-10 13:30N 28°20' W 013°20'5 9.8
2017-Nov-10 13:00N 28°24' W 013°17'510.1
2017-Nov-10 12:30N 28°29' W 013°15'510.1
2017-Nov-10 12:00N 28°33' W 013°12'510.2
2017-Nov-10 11:30N 28°38' W 013°09'510.1
2017-Nov-10 11:00N 28°42' W 013°07'610.0
2017-Nov-10 10:25N 28°47' W 013°04'410.0
2017-Nov-10 10:00N 28°51' W 013°01'5 9.6
2017-Nov-10 09:30N 28°55' W 012°59'5 9.6
2017-Nov-10 09:00N 28°59' W 012°57'5 9.0
2017-Nov-10 08:30N 29°03' W 012°54'5 9.5
2017-Nov-10 08:00N 29°08' W 012°52'510.1
2017-Nov-10 07:30N 29°12' W 012°49'510.3
2017-Nov-10 07:00N 29°17' W 012°46'510.3
2017-Nov-10 06:30N 29°21' W 012°44'510.3
2017-Nov-10 06:00N 29°26' W 012°41'510.4
2017-Nov-10 05:30N 29°31' W 012°38'510.4
2017-Nov-10 05:00N 29°35' W 012°36'510.4
2017-Nov-10 04:30N 29°40' W 012°33'510.6
2017-Nov-10 04:00N 29°45' W 012°30'510.5
2017-Nov-10 03:30N 29°49' W 012°27'510.8
2017-Nov-10 03:00N 29°54' W 012°24'611.1
2017-Nov-10 02:30N 29°59' W 012°21'510.8
2017-Nov-10 02:00N 30°04' W 012°19'610.6
2017-Nov-10 01:29N 30°08' W 012°15'510.6
2017-Nov-10 00:59N 30°13' W 012°12'  
Track history (hours):
 
Tides and Currents Weather Stations Pressure Air Temp Water Temp Dewpoint Dewpoint Depression Visibility Wind Speed Wind Dir Waves Ship Positions

Imrikly

Last reported at 2017-Nov-20 00:30 UTC. Time now 2018-Jan-24 11:52 UTC.
Position N 38°39' W 009°55'.
Warning: this ship's position is months out of date.

Length 106 m; draft 4.6 m.

Type: Ship (hazmat cat D). MMSI: 242426300.

Date/timePositionNaut miles runAvg speedWind from/ knotsBaromVisibWave heightAir tempDewpointWater temp
2017-Nov-20 00:30N 38°39' W 009°55'510.6
2017-Nov-20 00:00N 38°33' W 009°54'510.6
2017-Nov-19 23:31N 38°28' W 009°54'510.5
2017-Nov-19 23:00N 38°23' W 009°55'510.3
2017-Nov-19 22:30N 38°18' W 009°55'510.3
2017-Nov-19 22:00N 38°13' W 009°56'510.3
2017-Nov-19 21:31N 38°08' W 009°57'510.4
2017-Nov-19 21:00N 38°02' W 009°57'510.6
2017-Nov-19 20:31N 37°57' W 009°57'510.6
2017-Nov-19 20:00N 37°52' W 009°58'511.0
2017-Nov-19 19:30N 37°46' W 009°58'511.0
2017-Nov-19 19:01N 37°41' W 009°59'510.9
2017-Nov-19 18:30N 37°35' W 009°60'510.4
2017-Nov-19 18:00N 37°30' W 010°00'510.6
2017-Nov-19 17:30N 37°25' W 010°02'510.4
2017-Nov-19 17:00N 37°20' W 010°05'510.2
2017-Nov-19 16:31N 37°15' W 010°07'510.5
2017-Nov-19 16:00N 37°10' W 010°08'510.3
2017-Nov-19 15:29N 37°05' W 010°10'510.2
2017-Nov-19 15:00N 37°01' W 010°12'510.2
2017-Nov-19 14:30N 36°56' W 010°14'1510.4
2017-Nov-19 13:02N 36°41' W 010°19'310.3
2017-Nov-19 12:48N 36°38' W 010°20'510.5
2017-Nov-19 12:17N 36°34' W 010°23'310.5
2017-Nov-19 12:00N 36°31' W 010°24'510.7
2017-Nov-19 11:30N 36°26' W 010°26'  
2017-Nov-14 15:28N 28°06' W 013°13'6 6.8
2017-Nov-14 14:38N 28°00' W 013°14'1 9.2
2017-Nov-14 14:29N 27°59' W 013°15'7 9.3
2017-Nov-14 13:42N 27°52' W 013°19'  
2017-Nov-11 17:01N 27°05' W 013°26'0 0.9
2017-Nov-11 16:58N 27°05' W 013°26'1 2.1
2017-Nov-11 16:23N 27°05' W 013°27'1 1.3
2017-Nov-11 15:59N 27°05' W 013°28'0 0.1
2017-Nov-11 15:29N 27°05' W 013°28'0 0.0
2017-Nov-11 09:47N 27°05' W 013°28'0 0.0
2017-Nov-11 08:38N 27°05' W 013°28'0 0.0
2017-Nov-11 08:20N 27°05' W 013°28'0 0.0
2017-Nov-11 07:53N 27°05' W 013°28'0 0.0
2017-Nov-10 22:56N 27°05' W 013°28'0 0.0
2017-Nov-10 22:23N 27°05' W 013°28'0 0.1
2017-Nov-10 21:56N 27°05' W 013°28'2 4.2
2017-Nov-10 21:30N 27°07' W 013°28'6 9.8
2017-Nov-10 20:56N 27°12' W 013°29'4 9.8
2017-Nov-10 20:30N 27°16' W 013°30'5 9.6
2017-Nov-10 20:00N 27°21' W 013°31'5 9.5
2017-Nov-10 19:30N 27°26' W 013°32'5 9.6
2017-Nov-10 18:59N 27°31' W 013°33'5 9.5
2017-Nov-10 18:30N 27°35' W 013°34'5 9.6
2017-Nov-10 17:59N 27°40' W 013°35'5 9.5
2017-Nov-10 17:30N 27°45' W 013°36'5 9.4
2017-Nov-10 17:00N 27°49' W 013°36'5 9.4
2017-Nov-10 16:30N 27°54' W 013°35'5 9.9
2017-Nov-10 16:00N 27°58' W 013°32'5 9.8
2017-Nov-10 15:30N 28°03' W 013°30'5 9.7
2017-Nov-10 14:59N 28°07' W 013°27'5 9.7
2017-Nov-10 14:29N 28°11' W 013°25'5 9.6
2017-Nov-10 14:00N 28°16' W 013°22'5 9.6
2017-Nov-10 13:30N 28°20' W 013°20'5 9.8
2017-Nov-10 13:00N 28°24' W 013°17'510.1
2017-Nov-10 12:30N 28°29' W 013°15'510.1
2017-Nov-10 12:00N 28°33' W 013°12'510.2
2017-Nov-10 11:30N 28°38' W 013°09'510.1
2017-Nov-10 11:00N 28°42' W 013°07'610.0
2017-Nov-10 10:25N 28°47' W 013°04'410.0
2017-Nov-10 10:00N 28°51' W 013°01'5 9.6
2017-Nov-10 09:30N 28°55' W 012°59'5 9.6
2017-Nov-10 09:00N 28°59' W 012°57'5 9.0
2017-Nov-10 08:30N 29°03' W 012°54'5 9.5
2017-Nov-10 08:00N 29°08' W 012°52'510.1
2017-Nov-10 07:30N 29°12' W 012°49'510.3
2017-Nov-10 07:00N 29°17' W 012°46'510.3
2017-Nov-10 06:30N 29°21' W 012°44'510.3
2017-Nov-10 06:00N 29°26' W 012°41'510.4
2017-Nov-10 05:30N 29°31' W 012°38'510.4
2017-Nov-10 05:00N 29°35' W 012°36'510.4
2017-Nov-10 04:30N 29°40' W 012°33'510.6
2017-Nov-10 04:00N 29°45' W 012°30'510.5
2017-Nov-10 03:30N 29°49' W 012°27'510.8
2017-Nov-10 03:00N 29°54' W 012°24'611.1
2017-Nov-10 02:30N 29°59' W 012°21'510.8
2017-Nov-10 02:00N 30°04' W 012°19'610.6
2017-Nov-10 01:29N 30°08' W 012°15'510.6
2017-Nov-10 00:59N 30°13' W 012°12'  

Dump ship's entire track history